Cambridge, Minnesota
Current Conditions -  °F | °C
As of 12:16 PM on Friday 28 Nov 2014 (Local Time) from KCBG Reporting Station
Light Snow Light Snow  
Wind Chill:   Ceiling: 1900
Heat Index: 18°   Visibility: 10mi
Dew Point:   Wind: 7mph
Humidity: 68%   Direction: 100°E
Pressure: 29.89"   Gusts: NA
Location:  45.57°N, 93.22°W
Report Text: KCBG 281816Z AUTO 10006KT 10SM -SN BKN019 M08/M13 A2989 RMK AO2
Loading
Personal Weather Stations






























Interactive Weather Map New forecast layout! Learn more

10-Day Weather Forecast

Advertisements
Track Severe Weather on mobile